Impacts METAR Board
IDs:

KBTR - Baton Rouge/Ryan Fld, LA, US

Updated at: 0500 UTC 18 Oct 2018
Potential Impact None Slight Moderate High
Time 17/17Z 17/18Z 17/19Z 17/20Z 17/21Z 17/22Z 17/23Z 18/00Z 18/01Z 18/02Z 18/03Z 18/04Z 18/05Z
Temp69 69 67 67 67 67 67 66 67 67 67 67 66
Dewpt65 65 65 66 65 65 65 65 65 65 65 64 64
Altim30.20 30.19 30.17 30.17 30.17 30.18 30.19 30.20 30.22 30.24 30.24 30.24 30.24
VIS10 10 2 2 4 4 5 9 10 10 10 10 10
CIG7 9 9 9 7 7 7 8 9 13 12 12 31
CoverOVCOVCOVCOVCOVCOVCOVCOVCOVCOVCOVCOVCOVC
FltCatIFRIFRIFRIFRIFRIFRIFRIFRIFRMVFRMVFRMVFRVFR
WX-----RA BRRA BRBRBRBR------------
WDir30201020302030303030303030
WSpd7 11 7 9 7 7 6 8 8 8 7 9 7
WGst-- -- -- -- -- -- -- -- -- -- -- -- --
Raw hourly METARs
KBTR 171653Z 03007KT 10SM OVC007 21/18 A3020 RMK AO2 SLP226 T02060183
KBTR 171753Z 02011KT 10SM OVC009 21/18 A3019 RMK AO2 SLP223 T02060183 10206 20178 58003
KBTR 171853Z 01007KT 2SM -RA BR OVC009 19/18 A3017 RMK AO2 RAB26 SLP217 P0001 T01940183 $
KBTR 171953Z 02009KT 2SM RA BR BKN009 OVC016 19/19 A3017 RMK AO2 SLP214 P0025 T01940189 $
KBTR 172100Z 03007KT 4SM BR OVC007 19/18 A3017 RMK AO2 T01940183 $
KBTR 172153Z 02007KT 4SM BR OVC007 19/18 A3018 RMK AO2 LTG DSNT N SLP217 T01940183 $
KBTR 172253Z 03006KT 5SM BR OVC007 19/18 A3019 RMK AO2 SLP221 T01940183 $
KBTR 172353Z 03008KT 9SM OVC008 19/18 A3020 RMK AO2 SLP226 60029 T01890183 10206 20189 53010 $
KBTR 180053Z 03008KT 10SM OVC009 19/18 A3022 RMK AO2 SLP233 T01940183 $
KBTR 180200Z 03008KT 10SM BKN013 OVC019 19/18 A3024 RMK AO2 T01940183 $
KBTR 180253Z 03007KT 10SM OVC012 19/18 A3024 RMK AO2 SLP239 T01940183 51014 $
KBTR 180353Z 03009KT 10SM OVC012 19/18 A3024 RMK AO2 SLP238 T01940178 $
KBTR 180453Z AUTO 03007KT 10SM FEW013 OVC031 19/18 A3024 RMK AO2 SLP238 T01890178 $



Page loaded:  05:58 UTC  |   10:58 PM Pacific  |   11:58 PM Mountain  |   12:58 AM Central  |   01:58 AM Eastern

 

ADVISORIES

FORECASTS

FORECASTS

OBSERVATIONS

USER TOOLS

ABOUT US